Pagrindinis puslapis
METAR-TAF:

METAR-TAF

Oro uostai :

Beirutas, Libanas

platuma: 33-49N, ilguma: 035-29E, Aukštis: 29 m

Dabartinis oras

Ataskaita buvo paskelbta 1 valandą ir 4 minutes, ne 22:00 UTC
Vėjas 5 kt iš Pietų
Temperatūra 26°C
Drėgmė 65%
Slėgis 1013 hPa
Matomumas 10 km arba daugiau
Išsisklaidę debesys ne aukštis 3200 ft

METAR: OLBA 202200Z 19005KT 9999 SCT032 26/19 Q1013 NOSIG

Laikas: 02:04 (23:04 UTC)

Prognozė

Ataskaita buvo paskelbta 7 valandos ir 4 minutes, ne 16:00 UTC
Prognozė galioja nuo 20 metu 18 UTC su 21 metu 24 UTC
Vėjas 3 kt nuo kintamojo kryptimis
Matomumas: 8000 m
Išsisklaidę debesys ne aukštis 2400 ft
Laikinai
nuo 20 metu 18 UTC su 21 metu 24 UTC
Matomumas: 5000 m
rūkana
Tapsmas
nuo 21 metu 09 UTC su 21 metu 12 UTC
Vėjas 10 kt iš Vakarų/Pietvakarių su gūsio iki 20 kt
Tapsmas
nuo 21 metu 21 UTC su 21 metu 24 UTC
Vėjas 3 kt nuo kintamojo kryptimis

TAF: OLBA 201600Z 2018/2124 VRB03KT 8000 SCT024 TEMPO 2018/2124 5000 BR BECMG 2109/2112 24010G20KT BECMG 2121/2124 VRB03KT

Orai ataskaitas ir orų prognozės (METAR, TAF).

turimą stotys yra geltonos ir raudonos taškus žemėlapyje.

Perkelti pele per norėdami pamatyti stoties vardą.

Tada spustelėkite, norėdami matyti oro stebėjimo ir prognozės.

Norėdami pakeisti žemėlapį: spustelėkite ant žalios mygtukų su juodo kryžiaus žemyn,; žalią mygtuką su brūkšneliu, jei norite nutolinti; arba žalių rodyklių gretimoms žemėlapius.


METAR-TAF: